Headrick, Oklahoma
Current Conditions -  °F | °C
As of 8:58 PM on Friday 31 Oct 2014 (Local Time) from KLTS Reporting Station
Clear Clear  
Wind Chill: 41°   Ceiling: Unl
Heat Index: 45°   Visibility: 10mi
Dew Point: 25°   Wind: 8mph
Humidity: 45%   Direction: 30°NNE
Pressure: 30.39"   Gusts: NA
Location:  34.63°N, 99.14°W
Report Text: KLTS 010158Z 03007KT 10SM CLR 07/M04 A3039 RMK AO2A SLP294 T00741038 $
Loading
Personal Weather Stations






























Interactive Weather Map
Tropical Storm Tracking
New forecast layout! Learn more

10-Day Weather Forecast

Advertisements
Track Severe Weather on mobile